RJTH(METAR)
01/27 13:00
RJTH 270400Z 22021KT 6000 RA FEW005 SCT009 BKN014 16/16 Q1009 RMK
A2982=
戻る
トップページへ戻る
IMOC Co,.Ltd.